createdAt,value
2017-08-22T00:00:00.102Z,34.8
2017-08-22T00:00:56.793Z,34.8
2017-08-22T00:01:56.635Z,34.8
2017-08-22T00:02:59.937Z,34.8
2017-08-22T00:04:00.226Z,34.8
2017-08-22T00:04:56.812Z,34.8
2017-08-22T00:05:57.052Z,34.8
2017-08-22T00:06:56.862Z,34.8
2017-08-22T00:07:58.857Z,34.8
2017-08-22T00:08:57.160Z,34.8
2017-08-22T00:09:57.414Z,34.8
2017-08-22T00:10:59.279Z,34.8
2017-08-22T00:11:59.321Z,34.8
2017-08-22T00:12:59.144Z,34.7
2017-08-22T00:13:57.486Z,34.7
2017-08-22T00:14:59.215Z,34.7
2017-08-22T00:15:57.712Z,34.7
2017-08-22T00:16:57.620Z,34.7
2017-08-22T00:17:59.696Z,34.7
2017-08-22T00:18:59.454Z,34.7
2017-08-22T00:19:59.724Z,34.7
2017-08-22T00:21:01.022Z,34.7
2017-08-22T00:21:59.744Z,34.7
2017-08-22T00:22:57.925Z,34.7
2017-08-22T00:24:01.094Z,34.7
2017-08-22T00:25:01.156Z,34.7
2017-08-22T00:26:00.002Z,34.7
2017-08-22T00:26:58.148Z,34.7
2017-08-22T00:27:58.176Z,34.7
2017-08-22T00:29:01.664Z,34.7
2017-08-22T00:30:00.296Z,34.7
2017-08-22T00:31:01.491Z,34.7
2017-08-22T00:31:58.208Z,34.7
2017-08-22T00:32:58.456Z,34.7
2017-08-22T00:34:01.896Z,34.6
2017-08-22T00:34:58.295Z,34.6
2017-08-22T00:35:58.534Z,34.6
2017-08-22T00:37:00.267Z,34.6
2017-08-22T00:37:58.637Z,34.6
2017-08-22T00:38:58.498Z,34.6
2017-08-22T00:40:00.592Z,34.6
2017-08-22T00:41:01.890Z,34.6
2017-08-22T00:42:00.602Z,34.6
2017-08-22T00:42:58.742Z,34.6
2017-08-22T00:44:02.078Z,34.6
2017-08-22T00:45:02.408Z,34.6
2017-08-22T00:45:59.100Z,34.6
2017-08-22T00:46:59.154Z,34.6
2017-08-22T00:47:59.040Z,34.6
2017-08-22T00:48:59.258Z,34.6
2017-08-22T00:50:02.718Z,34.6
2017-08-22T00:51:02.760Z,34.6
2017-08-22T00:52:01.357Z,34.5
2017-08-22T00:53:02.687Z,34.6
2017-08-22T00:53:59.470Z,34.6
2017-08-22T00:54:59.707Z,34.5
2017-08-22T00:55:59.777Z,34.6
2017-08-22T00:56:59.567Z,34.5
2017-08-22T00:58:01.953Z,34.5
2017-08-22T00:58:59.755Z,34.5
2017-08-22T00:59:59.950Z,34.5
2017-08-22T01:01:03.391Z,34.5
2017-08-22T01:01:59.868Z,34.5
2017-08-22T01:02:59.960Z,34.5
2017-08-22T01:04:00.466Z,34.5
2017-08-22T01:05:00.087Z,34.5
2017-08-22T01:06:00.288Z,34.5
2017-08-22T01:07:02.129Z,34.5
2017-08-22T01:08:00.420Z,34.5
2017-08-22T01:09:00.324Z,34.5
2017-08-22T01:10:00.711Z,34.5
2017-08-22T01:11:02.290Z,34.5
2017-08-22T01:12:03.781Z,34.5
2017-08-22T01:13:02.336Z,34.5
2017-08-22T01:14:04.038Z,34.5
2017-08-22T01:15:02.832Z,34.5
2017-08-22T01:16:03.362Z,34.5
2017-08-22T01:17:00.945Z,34.5
2017-08-22T01:18:00.826Z,34.5
2017-08-22T01:19:04.400Z,34.5
2017-08-22T01:20:03.528Z,34.5
2017-08-22T01:21:04.397Z,34.5
2017-08-22T01:22:03.326Z,34.5
2017-08-22T01:23:04.485Z,34.4
2017-08-22T01:24:01.208Z,34.4
2017-08-22T01:25:03.242Z,34.4
2017-08-22T01:26:02.973Z,34.4
2017-08-22T01:27:04.682Z,34.4
2017-08-22T01:28:03.497Z,34.4
2017-08-22T01:29:03.332Z,34.4
2017-08-22T01:30:03.368Z,34.4
2017-08-22T01:31:01.253Z,34.4
2017-08-22T01:32:03.211Z,34.4
2017-08-22T01:33:04.635Z,34.4
2017-08-22T01:34:04.899Z,34.4
2017-08-22T01:35:04.781Z,34.4
2017-08-22T01:36:01.664Z,34.4
2017-08-22T01:37:05.054Z,34.4
2017-08-22T01:38:01.700Z,34.4
2017-08-22T01:39:01.768Z,34.4
2017-08-22T01:40:01.961Z,34.4
2017-08-22T01:41:04.997Z,34.4
2017-08-22T01:42:01.880Z,34.4
2017-08-22T01:43:01.848Z,34.4
2017-08-22T01:44:05.465Z,34.4
2017-08-22T01:45:05.520Z,34.4
2017-08-22T01:46:05.759Z,34.4
2017-08-22T01:47:05.427Z,34.4
2017-08-22T01:48:02.557Z,34.4
2017-08-22T01:49:02.588Z,34.4
2017-08-22T01:50:03.309Z,34.4
2017-08-22T01:51:02.488Z,34.4
2017-08-22T01:52:08.455Z,34.4
2017-08-22T01:53:02.932Z,34.4
2017-08-22T01:54:03.595Z,34.4
2017-08-22T01:55:06.140Z,34.3
2017-08-22T01:56:05.241Z,34.4
2017-08-22T01:57:06.330Z,34.4
2017-08-22T01:58:02.920Z,34.3
2017-08-22T01:59:02.856Z,34.3
2017-08-22T02:00:02.946Z,34.4
2017-08-22T02:01:06.404Z,34.3
2017-08-22T02:02:03.562Z,34.3
2017-08-22T02:03:05.565Z,34.3
2017-08-22T02:04:06.863Z,34.3
2017-08-22T02:05:03.520Z,34.3
2017-08-22T02:06:06.952Z,34.3
2017-08-22T02:07:06.774Z,34.3
2017-08-22T02:08:03.739Z,34.3
2017-08-22T02:09:04.356Z,34.3
2017-08-22T02:10:07.355Z,34.3
2017-08-22T02:11:05.632Z,34.3
2017-08-22T02:12:07.195Z,34.3
2017-08-22T02:13:03.870Z,34.3
2017-08-22T02:14:04.024Z,34.3
2017-08-22T02:15:05.700Z,34.3
2017-08-22T02:16:08.227Z,34.3
2017-08-22T02:17:07.289Z,34.3
2017-08-22T02:18:06.902Z,34.3
2017-08-22T02:19:08.375Z,34.3
2017-08-22T02:20:04.229Z,34.3
2017-08-22T02:21:04.593Z,34.3
2017-08-22T02:22:06.392Z,34.3
2017-08-22T02:23:04.175Z,34.3
2017-08-22T02:24:07.569Z,34.3
2017-08-22T02:25:05.667Z,34.3
2017-08-22T02:26:06.691Z,34.3
2017-08-22T02:27:04.759Z,34.3
2017-08-22T02:28:04.903Z,34.3
2017-08-22T02:29:04.658Z,34.3
2017-08-22T02:30:08.568Z,34.3
2017-08-22T02:31:05.735Z,34.3
2017-08-22T02:32:04.758Z,34.3
2017-08-22T02:33:06.627Z,34.3
2017-08-22T02:34:09.107Z,34.3
2017-08-22T02:35:04.858Z,34.3
2017-08-22T02:36:08.980Z,34.3
2017-08-22T02:37:05.901Z,34.3
2017-08-22T02:38:06.098Z,34.3
2017-08-22T02:39:05.189Z,34.3
2017-08-22T02:40:05.676Z,34.3
2017-08-22T02:41:08.438Z,34.3
2017-08-22T02:42:07.339Z,34.3
2017-08-22T02:43:08.570Z,34.3
2017-08-22T02:44:05.525Z,34.3
2017-08-22T02:45:05.567Z,34.3
2017-08-22T02:46:09.077Z,34.3
2017-08-22T02:47:05.471Z,34.3
2017-08-22T02:48:09.031Z,34.3
2017-08-22T02:49:07.637Z,34.2
2017-08-22T02:50:05.549Z,34.2
2017-08-22T02:51:08.906Z,34.2
2017-08-22T02:52:05.969Z,34.2
2017-08-22T02:53:05.903Z,34.2
2017-08-22T02:54:09.348Z,34.2
2017-08-22T02:55:05.844Z,34.2
2017-08-22T02:56:06.028Z,34.2
2017-08-22T02:57:06.157Z,34.2
2017-08-22T02:58:09.807Z,34.2
2017-08-22T02:59:09.989Z,34.2
2017-08-22T03:00:06.107Z,34.2
2017-08-22T03:01:09.786Z,34.2
2017-08-22T03:02:08.158Z,34.2
2017-08-22T03:03:09.753Z,34.2
2017-08-22T03:04:09.718Z,34.2
2017-08-22T03:05:08.127Z,34.2
2017-08-22T03:06:06.210Z,34.2
2017-08-22T03:07:09.698Z,34.2
2017-08-22T03:08:09.967Z,34.2
2017-08-22T03:09:09.835Z,34.2
2017-08-22T03:10:06.534Z,34.2
2017-08-22T03:11:06.856Z,34.2
2017-08-22T03:12:08.843Z,34.2
2017-08-22T03:13:06.784Z,34.2
2017-08-22T03:14:06.998Z,34.2
2017-08-22T03:15:10.380Z,34.2
2017-08-22T03:16:06.897Z,34.2
2017-08-22T03:17:10.436Z,34.2
2017-08-22T03:18:07.367Z,34.2
2017-08-22T03:19:07.259Z,34.2
2017-08-22T03:20:10.997Z,34.2
2017-08-22T03:21:10.917Z,34.2
2017-08-22T03:22:07.372Z,34.2
2017-08-22T03:23:07.547Z,34.2
2017-08-22T03:24:09.509Z,34.2
2017-08-22T03:25:09.342Z,34.2
2017-08-22T03:26:07.717Z,34.2
2017-08-22T03:27:11.130Z,34.2
2017-08-22T03:28:09.529Z,34.2
2017-08-22T03:29:07.707Z,34.2
2017-08-22T03:30:07.940Z,34.2
2017-08-22T03:31:11.345Z,34.2
2017-08-22T03:32:09.779Z,34.2
2017-08-22T03:33:11.552Z,34.2
2017-08-22T03:34:11.588Z,34.2
2017-08-22T03:35:08.065Z,34.2
2017-08-22T03:36:08.117Z,34.2
2017-08-22T03:37:08.386Z,34.2
2017-08-22T03:38:11.525Z,34.2
2017-08-22T03:39:10.347Z,34.2
2017-08-22T03:40:10.174Z,34.2
2017-08-22T03:41:08.469Z,34.2
2017-08-22T03:42:10.281Z,34.2
2017-08-22T03:43:08.453Z,34.2
2017-08-22T03:44:12.072Z,34.2
2017-08-22T03:45:12.132Z,34.2
2017-08-22T03:46:08.842Z,34.2
2017-08-22T03:47:10.590Z,34.2
2017-08-22T03:48:12.298Z,34.2
2017-08-22T03:49:08.848Z,34.1
2017-08-22T03:50:09.188Z,34.2
2017-08-22T03:51:10.934Z,34.2
2017-08-22T03:52:11.186Z,34.2
2017-08-22T03:53:09.290Z,34.1
2017-08-22T03:54:12.664Z,34.2
2017-08-22T03:55:12.484Z,34.1
2017-08-22T03:56:11.368Z,34.1
2017-08-22T03:57:11.424Z,34.1
2017-08-22T03:58:12.651Z,34.1
2017-08-22T03:59:12.735Z,34.1
2017-08-22T04:00:09.634Z,34.1
2017-08-22T04:01:11.442Z,34.1
2017-08-22T04:02:13.129Z,34.1
2017-08-22T04:03:09.811Z,34.1
2017-08-22T04:04:13.260Z,34.1
2017-08-22T04:05:09.918Z,34.1
2017-08-22T04:06:09.953Z,34.1
2017-08-22T04:07:11.916Z,34.1
2017-08-22T04:08:11.948Z,34.1
2017-08-22T04:09:11.752Z,34.1
2017-08-22T04:10:09.858Z,34.1
2017-08-22T04:11:12.002Z,34.1
2017-08-22T04:12:12.103Z,34.1
2017-08-22T04:13:12.116Z,34.1
2017-08-22T04:14:13.345Z,34.1
2017-08-22T04:15:10.282Z,34.1
2017-08-22T04:16:10.116Z,34.1
2017-08-22T04:17:10.313Z,34.1
2017-08-22T04:18:10.192Z,34.1
2017-08-22T04:19:13.613Z,34.1
2017-08-22T04:20:12.301Z,34.1
2017-08-22T04:21:12.301Z,34.1
2017-08-22T04:22:10.614Z,34.1
2017-08-22T04:23:10.672Z,34.1
2017-08-22T04:24:11.196Z,34.1
2017-08-22T04:25:10.798Z,34.1
2017-08-22T04:26:10.816Z,34.1
2017-08-22T04:27:10.663Z,34.1
2017-08-22T04:28:12.607Z,34.1
2017-08-22T04:29:12.864Z,34.1
2017-08-22T04:30:10.996Z,34.1
2017-08-22T04:31:11.003Z,34.1
2017-08-22T04:32:14.415Z,34.2
2017-08-22T04:33:12.846Z,34.2
2017-08-22T04:34:10.970Z,34.3
2017-08-22T04:35:13.158Z,34.4
2017-08-22T04:36:11.061Z,34.5
2017-08-22T04:37:11.331Z,34.3
2017-08-22T04:38:14.457Z,34.2
2017-08-22T04:39:14.541Z,34.2
2017-08-22T04:40:11.337Z,34.3
2017-08-22T04:41:11.542Z,34.4
2017-08-22T04:42:13.286Z,34.5
2017-08-22T04:43:13.618Z,34.6
2017-08-22T04:44:13.408Z,34.8
2017-08-22T04:45:11.785Z,34.9
2017-08-22T04:46:15.129Z,35
2017-08-22T04:47:11.608Z,35
2017-08-22T04:48:11.634Z,35.1
2017-08-22T04:49:11.651Z,35.2
2017-08-22T04:50:12.552Z,35.2
2017-08-22T04:51:11.753Z,35.3
2017-08-22T04:52:13.738Z,35.3
2017-08-22T04:53:13.693Z,35.3
2017-08-22T04:54:11.902Z,35.4
2017-08-22T04:55:13.852Z,35.4
2017-08-22T04:56:15.316Z,35.5
2017-08-22T04:57:14.411Z,35.5
2017-08-22T04:58:12.081Z,35.5
2017-08-22T04:59:12.317Z,35.6
2017-08-22T05:00:12.909Z,35.6
2017-08-22T05:01:12.237Z,35.6
2017-08-22T05:02:15.793Z,35.7
2017-08-22T05:03:15.899Z,35.7
2017-08-22T05:04:15.937Z,35.7
2017-08-22T05:05:12.486Z,35.7
2017-08-22T05:06:12.736Z,35.8
2017-08-22T05:07:12.595Z,35.8
2017-08-22T05:08:14.814Z,35.9
2017-08-22T05:09:14.830Z,35.9
2017-08-22T05:10:12.942Z,35.9
2017-08-22T05:11:16.275Z,36
2017-08-22T05:12:12.973Z,36
2017-08-22T05:13:12.881Z,36
2017-08-22T05:14:12.952Z,36.1
2017-08-22T05:15:12.997Z,36.1
2017-08-22T05:16:14.933Z,36.2
2017-08-22T05:17:16.547Z,36.2
2017-08-22T05:18:15.008Z,36.2
2017-08-22T05:19:13.162Z,36.2
2017-08-22T05:20:19.725Z,36.2
2017-08-22T05:21:15.150Z,36.2
2017-08-22T05:22:13.220Z,36.2
2017-08-22T05:23:13.444Z,36.2
2017-08-22T05:24:16.836Z,36.3
2017-08-22T05:25:16.703Z,36.3
2017-08-22T05:26:16.853Z,36.3
2017-08-22T05:27:13.508Z,36.3
2017-08-22T05:28:13.776Z,36.4
2017-08-22T05:29:13.593Z,36.4
2017-08-22T05:30:13.593Z,36.4
2017-08-22T05:31:13.838Z,36.4
2017-08-22T05:32:14.712Z,36.3
2017-08-22T05:33:17.875Z,36.3
2017-08-22T05:34:15.773Z,36.3
2017-08-22T05:35:13.953Z,36.3
2017-08-22T05:36:14.021Z,36.3
2017-08-22T05:37:17.373Z,36.3
2017-08-22T05:38:14.130Z,36.3
2017-08-22T05:39:14.385Z,36.3
2017-08-22T05:40:14.307Z,36.3
2017-08-22T05:41:16.396Z,36.3
2017-08-22T05:42:17.614Z,36.3
2017-08-22T05:43:14.326Z,36.3
2017-08-22T05:44:14.564Z,36.3
2017-08-22T05:45:15.438Z,36.3
2017-08-22T05:46:17.781Z,36.3
2017-08-22T05:47:17.820Z,36.3
2017-08-22T05:48:16.617Z,36.3
2017-08-22T05:49:14.707Z,36.3
2017-08-22T05:50:14.536Z,36.3
2017-08-22T05:51:15.028Z,36.3
2017-08-22T05:52:16.542Z,36.3
2017-08-22T05:53:18.036Z,36.4
2017-08-22T05:54:16.914Z,36.4
2017-08-22T05:55:18.330Z,36.5
2017-08-22T05:56:14.851Z,36.5
2017-08-22T05:57:15.754Z,36.5
2017-08-22T05:58:15.146Z,36.5
2017-08-22T05:59:17.770Z,36.5
2017-08-22T06:00:16.934Z,36.5
2017-08-22T06:01:17.561Z,36.5
2017-08-22T06:02:18.477Z,36.5
2017-08-22T06:03:17.241Z,36.6
2017-08-22T06:04:19.251Z,36.6
2017-08-22T06:05:15.270Z,36.6
2017-08-22T06:06:18.857Z,36.5
2017-08-22T06:07:17.571Z,36.5
2017-08-22T06:08:16.979Z,36.5
2017-08-22T06:09:15.610Z,36.6
2017-08-22T06:10:17.489Z,36.5
2017-08-22T06:11:15.576Z,36.5
2017-08-22T06:12:15.612Z,36.6
2017-08-22T06:13:17.775Z,36.5
2017-08-22T06:14:17.761Z,36.5
2017-08-22T06:15:17.939Z,36.5
2017-08-22T06:16:15.968Z,36.6
2017-08-22T06:17:18.435Z,36.6
2017-08-22T06:18:19.563Z,36.6
2017-08-22T06:19:19.330Z,36.6
2017-08-22T06:20:18.210Z,36.6
2017-08-22T06:21:16.717Z,36.6
2017-08-22T06:22:17.428Z,36.6
2017-08-22T06:23:19.801Z,36.6
2017-08-22T06:24:16.338Z,36.6
2017-08-22T06:25:16.328Z,36.7
2017-08-22T06:26:20.386Z,36.6
2017-08-22T06:27:18.942Z,36.6
2017-08-22T06:28:16.643Z,36.6
2017-08-22T06:29:20.103Z,36.7
2017-08-22T06:30:18.593Z,36.6
2017-08-22T06:31:16.699Z,36.7
2017-08-22T06:32:18.920Z,36.7
2017-08-22T06:33:16.815Z,36.8
2017-08-22T06:34:16.783Z,36.8
2017-08-22T06:35:18.684Z,36.9
2017-08-22T06:36:20.339Z,36.9
2017-08-22T06:37:17.853Z,36.9
2017-08-22T06:38:17.855Z,36.9
2017-08-22T06:39:17.115Z,36.9
2017-08-22T06:40:17.149Z,36.9
2017-08-22T06:41:17.060Z,36.9
2017-08-22T06:42:18.084Z,36.9
2017-08-22T06:43:17.190Z,36.9
2017-08-22T06:44:19.280Z,37
2017-08-22T06:45:17.250Z,37
2017-08-22T06:46:17.521Z,37
2017-08-22T06:47:18.098Z,37
2017-08-22T06:48:17.619Z,37.2
2017-08-22T06:49:17.668Z,37.3
2017-08-22T06:50:21.771Z,37.3
2017-08-22T06:51:17.526Z,37.2
2017-08-22T06:52:20.959Z,37.2
2017-08-22T06:53:18.433Z,37.2
2017-08-22T06:54:21.006Z,37.1
2017-08-22T06:55:17.869Z,37.1
2017-08-22T06:56:21.317Z,37.1
2017-08-22T06:57:17.964Z,37.1
2017-08-22T06:58:18.084Z,37
2017-08-22T06:59:21.941Z,37
2017-08-22T07:00:17.998Z,37
2017-08-22T07:01:19.349Z,37
2017-08-22T07:02:18.233Z,37
2017-08-22T07:03:20.004Z,37
2017-08-22T07:04:18.658Z,37
2017-08-22T07:05:18.383Z,37
2017-08-22T07:06:18.391Z,37
2017-08-22T07:07:18.500Z,37
2017-08-22T07:08:18.621Z,37
2017-08-22T07:09:21.963Z,37
2017-08-22T07:10:21.939Z,37
2017-08-22T07:11:20.589Z,37
2017-08-22T07:12:22.593Z,37
2017-08-22T07:13:21.301Z,36.9
2017-08-22T07:14:20.462Z,36.9
2017-08-22T07:15:20.885Z,36.9
2017-08-22T07:16:22.554Z,36.8
2017-08-22T07:17:20.044Z,36.8
2017-08-22T07:18:18.932Z,36.8
2017-08-22T07:19:19.491Z,36.8
2017-08-22T07:20:18.928Z,36.7
2017-08-22T07:21:22.316Z,36.7
2017-08-22T07:22:21.508Z,36.7
2017-08-22T07:23:19.168Z,36.7
2017-08-22T07:24:19.293Z,36.6
2017-08-22T07:25:20.110Z,36.6
2017-08-22T07:26:19.557Z,36.6
2017-08-22T07:27:19.463Z,36.6
2017-08-22T07:28:21.416Z,36.5
2017-08-22T07:29:22.308Z,36.5
2017-08-22T07:30:21.064Z,36.5
2017-08-22T07:31:24.158Z,36.5
2017-08-22T07:32:20.799Z,36.5
2017-08-22T07:33:24.022Z,36.4
2017-08-22T07:34:23.134Z,36.4
2017-08-22T07:35:22.004Z,36.4
2017-08-22T07:36:19.910Z,36.4
2017-08-22T07:37:23.213Z,36.4
2017-08-22T07:38:20.162Z,36.4
2017-08-22T07:39:20.302Z,36.3
2017-08-22T07:40:25.087Z,36.3
2017-08-22T07:41:21.045Z,36.2
2017-08-22T07:42:21.038Z,36.2
2017-08-22T07:43:21.814Z,36.2
2017-08-22T07:44:20.517Z,36.2
2017-08-22T07:45:22.475Z,36.1
2017-08-22T07:46:20.543Z,36.1
2017-08-22T07:47:20.375Z,36
2017-08-22T07:48:20.462Z,36
2017-08-22T07:49:20.518Z,35.9
2017-08-22T07:50:22.498Z,35.9
2017-08-22T07:51:22.715Z,35.8
2017-08-22T07:52:24.024Z,35.8
2017-08-22T07:53:20.731Z,35.7
2017-08-22T07:54:21.034Z,35.7
2017-08-22T07:55:21.081Z,35.7
2017-08-22T07:56:21.136Z,35.7
2017-08-22T07:57:22.935Z,35.6
2017-08-22T07:58:21.180Z,35.5
2017-08-22T07:59:21.297Z,35.5
2017-08-22T08:00:21.178Z,35.5
2017-08-22T08:01:21.186Z,35.4
2017-08-22T08:02:24.541Z,35.4
2017-08-22T08:03:23.212Z,35.3
2017-08-22T08:04:21.359Z,35.2
2017-08-22T08:05:21.614Z,35.1
2017-08-22T08:06:25.415Z,35
2017-08-22T08:07:24.806Z,34.8
2017-08-22T08:08:22.152Z,34.8
2017-08-22T08:09:22.153Z,34.6
2017-08-22T08:10:22.289Z,34.5
2017-08-22T08:11:23.654Z,34.5
2017-08-22T08:12:22.027Z,34.5
2017-08-22T08:13:22.752Z,34.6
2017-08-22T08:14:25.520Z,34.6
2017-08-22T08:15:22.015Z,34.6
2017-08-22T08:16:25.491Z,34.6
2017-08-22T08:17:24.307Z,34.6
2017-08-22T08:18:22.845Z,34.6
2017-08-22T08:19:25.595Z,34.6
2017-08-22T08:20:24.489Z,34.6
2017-08-22T08:21:25.723Z,34.7
2017-08-22T08:22:22.452Z,34.8
2017-08-22T08:23:26.649Z,34.9
2017-08-22T08:24:25.771Z,34.9
2017-08-22T08:25:26.175Z,34.9
2017-08-22T08:26:24.809Z,35
2017-08-22T08:27:22.707Z,34.9
2017-08-22T08:28:22.875Z,34.9
2017-08-22T08:29:24.656Z,34.8
2017-08-22T08:30:26.171Z,34.7
2017-08-22T08:31:22.991Z,34.5
2017-08-22T08:32:26.172Z,34.4
2017-08-22T08:33:26.958Z,34.4
2017-08-22T08:34:26.345Z,34.5
2017-08-22T08:35:23.853Z,34.5
2017-08-22T08:36:23.850Z,34.5
2017-08-22T08:37:23.318Z,34.5
2017-08-22T08:38:27.235Z,34.5
2017-08-22T08:39:27.666Z,34.5
2017-08-22T08:40:26.425Z,34.5
2017-08-22T08:41:24.027Z,34.5
2017-08-22T08:42:23.492Z,34.5
2017-08-22T08:43:27.885Z,34.5
2017-08-22T08:44:24.406Z,34.5
2017-08-22T08:45:25.016Z,34.4
2017-08-22T08:46:24.715Z,34.3
2017-08-22T08:47:25.629Z,34.3
2017-08-22T08:48:23.843Z,34.3
2017-08-22T08:49:23.801Z,34.2
2017-08-22T08:50:26.456Z,34.2
2017-08-22T08:51:27.013Z,34.1
2017-08-22T08:52:26.773Z,34
2017-08-22T08:53:23.816Z,34
2017-08-22T08:54:23.820Z,34
2017-08-22T08:55:24.165Z,33.9
2017-08-22T08:56:25.867Z,33.9
2017-08-22T08:57:24.166Z,33.9
2017-08-22T08:58:27.556Z,33.9
2017-08-22T08:59:24.790Z,33.9
2017-08-22T09:00:24.892Z,33.8
2017-08-22T09:01:26.386Z,33.8
2017-08-22T09:02:27.672Z,33.8
2017-08-22T09:03:27.952Z,33.8
2017-08-22T09:04:24.481Z,33.8
2017-08-22T09:05:27.935Z,33.8
2017-08-22T09:06:26.387Z,33.8
2017-08-22T09:07:26.431Z,33.7
2017-08-22T09:08:24.762Z,33.6
2017-08-22T09:09:25.540Z,33.5
2017-08-22T09:10:25.577Z,33.4
2017-08-22T09:11:27.004Z,33.3
2017-08-22T09:12:28.236Z,33.2
2017-08-22T09:13:25.510Z,33.1
2017-08-22T09:14:31.377Z,33.1
2017-08-22T09:15:28.382Z,33.1
2017-08-22T09:16:29.660Z,33.1
2017-08-22T09:17:25.797Z,33.1
2017-08-22T09:18:25.387Z,33.1
2017-08-22T09:19:27.721Z,33.1
2017-08-22T09:20:25.580Z,33
2017-08-22T09:21:28.933Z,33
2017-08-22T09:22:25.640Z,32.9
2017-08-22T09:23:25.761Z,32.9
2017-08-22T09:24:29.118Z,32.8
2017-08-22T09:25:27.525Z,32.7
2017-08-22T09:26:25.795Z,32.7
2017-08-22T09:27:27.795Z,32.7
2017-08-22T09:28:25.881Z,32.6
2017-08-22T09:29:26.505Z,32.6
2017-08-22T09:30:29.347Z,32.5
2017-08-22T09:31:28.087Z,32.6
2017-08-22T09:32:26.670Z,32.5
2017-08-22T09:33:29.694Z,32.5
2017-08-22T09:34:26.231Z,32.4
2017-08-22T09:35:28.477Z,32.4
2017-08-22T09:36:27.644Z,32.4
2017-08-22T09:37:30.897Z,32.3
2017-08-22T09:38:26.920Z,32.2
2017-08-22T09:39:27.017Z,32.2
2017-08-22T09:40:31.418Z,32.2
2017-08-22T09:41:27.047Z,32.2
2017-08-22T09:42:26.370Z,32.2
2017-08-22T09:43:26.362Z,32.1
2017-08-22T09:44:29.803Z,32
2017-08-22T09:45:26.753Z,31.9
2017-08-22T09:46:27.980Z,31.8
2017-08-22T09:47:28.757Z,31.6
2017-08-22T09:48:30.282Z,31.6
2017-08-22T09:49:26.922Z,31.5
2017-08-22T09:50:30.440Z,31.4
2017-08-22T09:51:30.200Z,31.4
2017-08-22T09:52:27.175Z,31.3
2017-08-22T09:53:27.816Z,31.3
2017-08-22T09:54:29.464Z,31.3
2017-08-22T09:55:27.938Z,31.2
2017-08-22T09:56:29.127Z,31.2
2017-08-22T09:57:27.415Z,31.1
2017-08-22T09:58:30.799Z,31.1
2017-08-22T09:59:27.464Z,31.1
2017-08-22T10:00:27.531Z,31
2017-08-22T10:01:30.150Z,31.1
2017-08-22T10:02:28.058Z,31.1
2017-08-22T10:03:30.697Z,31.1
2017-08-22T10:04:29.924Z,31.1
2017-08-22T10:05:29.614Z,31
2017-08-22T10:06:32.233Z,31
2017-08-22T10:07:31.367Z,31
2017-08-22T10:08:27.850Z,31
2017-08-22T10:09:31.375Z,31
2017-08-22T10:10:31.195Z,31
2017-08-22T10:11:28.095Z,31
2017-08-22T10:12:28.176Z,30.9
2017-08-22T10:13:31.313Z,30.9
2017-08-22T10:14:28.317Z,30.8
2017-08-22T10:15:31.483Z,30.8
2017-08-22T10:16:30.425Z,30.8
2017-08-22T10:17:31.031Z,30.8
2017-08-22T10:18:30.492Z,30.7
2017-08-22T10:19:32.264Z,30.7
2017-08-22T10:20:28.448Z,30.7
2017-08-22T10:21:28.488Z,30.7
2017-08-22T10:22:28.680Z,30.7
2017-08-22T10:23:28.597Z,30.7
2017-08-22T10:24:28.612Z,30.6
2017-08-22T10:25:28.837Z,30.6
2017-08-22T10:26:28.756Z,30.6
2017-08-22T10:27:31.154Z,30.7
2017-08-22T10:28:29.103Z,30.7
2017-08-22T10:29:32.253Z,30.6
2017-08-22T10:30:33.498Z,30.6
2017-08-22T10:31:31.174Z,30.6
2017-08-22T10:32:29.334Z,30.5
2017-08-22T10:33:29.855Z,30.5
2017-08-22T10:34:31.347Z,30.5
2017-08-22T10:35:33.166Z,30.4
2017-08-22T10:36:32.735Z,30.4
2017-08-22T10:37:29.958Z,30.4
2017-08-22T10:38:32.703Z,30.4
2017-08-22T10:39:29.431Z,30.3
2017-08-22T10:40:29.512Z,30.3
2017-08-22T10:41:31.705Z,30.2
2017-08-22T10:42:33.226Z,30.2
2017-08-22T10:43:29.619Z,30.3
2017-08-22T10:44:31.520Z,30.3
2017-08-22T10:45:31.761Z,30.3
2017-08-22T10:46:29.875Z,30.3
2017-08-22T10:47:29.762Z,30.3
2017-08-22T10:48:33.172Z,30.3
2017-08-22T10:49:33.497Z,30.3
2017-08-22T10:50:29.930Z,30.4
2017-08-22T10:51:33.525Z,30.4
2017-08-22T10:52:29.991Z,30.4
2017-08-22T10:53:30.190Z,30.3
2017-08-22T10:54:30.060Z,30.3
2017-08-22T10:55:30.353Z,30.4
2017-08-22T10:56:30.861Z,30.4
2017-08-22T10:57:33.535Z,30.4
2017-08-22T10:58:30.452Z,30.4
2017-08-22T10:59:30.432Z,30.4
2017-08-22T11:00:30.346Z,30.4
2017-08-22T11:01:32.965Z,30.4
2017-08-22T11:02:32.294Z,30.4
2017-08-22T11:03:30.653Z,30.3
2017-08-22T11:04:34.726Z,30.3
2017-08-22T11:05:30.553Z,30.3
2017-08-22T11:06:30.573Z,30.3
2017-08-22T11:07:34.346Z,30.2
2017-08-22T11:08:30.831Z,30.1
2017-08-22T11:09:30.723Z,30.1
2017-08-22T11:10:32.705Z,30.1
2017-08-22T11:11:31.107Z,30.1
2017-08-22T11:12:31.301Z,30.1
2017-08-22T11:13:31.029Z,30.1
2017-08-22T11:14:31.118Z,30.1
2017-08-22T11:15:33.243Z,30.2
2017-08-22T11:16:31.188Z,30.2
2017-08-22T11:17:33.820Z,30.2
2017-08-22T11:18:31.494Z,30.2
2017-08-22T11:19:33.201Z,30.2
2017-08-22T11:20:31.274Z,30.2
2017-08-22T11:21:31.969Z,30.2
2017-08-22T11:22:31.547Z,30.2
2017-08-22T11:23:31.634Z,30.2
2017-08-22T11:24:34.982Z,30.2
2017-08-22T11:25:35.081Z,30.2
2017-08-22T11:26:32.241Z,30.1
2017-08-22T11:27:35.725Z,30.1
2017-08-22T11:28:32.562Z,30
2017-08-22T11:29:34.403Z,30
2017-08-22T11:30:35.213Z,30
2017-08-22T11:31:35.221Z,30
2017-08-22T11:32:32.564Z,30
2017-08-22T11:33:37.311Z,30
2017-08-22T11:34:32.569Z,30
2017-08-22T11:35:32.126Z,30
2017-08-22T11:36:37.480Z,30.1
2017-08-22T11:37:32.995Z,30.1
2017-08-22T11:38:32.319Z,30.1
2017-08-22T11:39:32.357Z,30.2
2017-08-22T11:40:35.533Z,30.2
2017-08-22T11:41:32.322Z,30.2
2017-08-22T11:42:32.328Z,30.2
2017-08-22T11:43:33.056Z,30.3
2017-08-22T11:44:35.960Z,30.4
2017-08-22T11:45:34.314Z,30.4
2017-08-22T11:46:36.054Z,30.4
2017-08-22T11:47:32.615Z,30.5
2017-08-22T11:48:32.998Z,30.4
2017-08-22T11:49:32.506Z,30.4
2017-08-22T11:50:37.245Z,30.5
2017-08-22T11:51:34.851Z,30.5
2017-08-22T11:52:33.732Z,30.4
2017-08-22T11:53:34.789Z,30.3
2017-08-22T11:54:33.096Z,30.2
2017-08-22T11:55:35.082Z,30.1
2017-08-22T11:56:35.276Z,30
2017-08-22T11:57:36.438Z,30
2017-08-22T11:58:34.339Z,30
2017-08-22T11:59:34.238Z,29.9
2017-08-22T12:00:36.843Z,29.9
2017-08-22T12:01:35.305Z,29.9
2017-08-22T12:02:33.382Z,29.9
2017-08-22T12:03:34.057Z,29.9
2017-08-22T12:04:36.814Z,29.9
2017-08-22T12:05:34.433Z,29.9
2017-08-22T12:06:33.800Z,29.9
2017-08-22T12:07:33.898Z,29.9
2017-08-22T12:08:37.666Z,29.9
2017-08-22T12:09:37.116Z,29.9
2017-08-22T12:10:34.521Z,29.9
2017-08-22T12:11:36.235Z,29.9
2017-08-22T12:12:34.608Z,29.9
2017-08-22T12:13:34.093Z,29.9
2017-08-22T12:14:36.158Z,29.8
2017-08-22T12:15:38.183Z,29.8
2017-08-22T12:16:34.231Z,29.8
2017-08-22T12:17:34.031Z,29.7
2017-08-22T12:18:38.029Z,29.7
2017-08-22T12:19:34.858Z,29.7
2017-08-22T12:20:35.762Z,29.7
2017-08-22T12:21:38.485Z,29.8
2017-08-22T12:22:37.685Z,29.8
2017-08-22T12:23:35.861Z,29.8
2017-08-22T12:24:35.236Z,29.8
2017-08-22T12:25:34.698Z,29.7
2017-08-22T12:26:34.566Z,29.7
2017-08-22T12:27:34.701Z,29.7
2017-08-22T12:28:34.640Z,29.7
2017-08-22T12:29:34.888Z,29.6
2017-08-22T12:30:36.953Z,29.6
2017-08-22T12:31:34.851Z,29.6
2017-08-22T12:32:38.537Z,29.7
2017-08-22T12:33:35.122Z,29.6
2017-08-22T12:34:37.013Z,29.6
2017-08-22T12:35:35.894Z,29.6
2017-08-22T12:36:37.341Z,29.5
2017-08-22T12:37:35.255Z,29.5
2017-08-22T12:38:39.095Z,29.5
2017-08-22T12:39:37.765Z,29.5
2017-08-22T12:40:36.620Z,29.5
2017-08-22T12:41:38.111Z,29.5
2017-08-22T12:42:42.155Z,29.5
2017-08-22T12:43:39.694Z,29.5
2017-08-22T12:44:41.484Z,29.5
2017-08-22T12:45:36.111Z,29.5
2017-08-22T12:46:36.301Z,29.5
2017-08-22T12:47:40.631Z,29.5
2017-08-22T12:48:39.770Z,29.5
2017-08-22T12:49:37.350Z,29.5
2017-08-22T12:50:39.317Z,29.5
2017-08-22T12:51:40.503Z,29.6
2017-08-22T12:52:35.793Z,29.6
2017-08-22T12:53:35.787Z,29.6
2017-08-22T12:54:38.007Z,29.7
2017-08-22T12:55:40.753Z,29.7
2017-08-22T12:56:39.189Z,29.6
2017-08-22T12:57:36.051Z,29.7
2017-08-22T12:58:36.009Z,29.7
2017-08-22T12:59:39.465Z,29.6
2017-08-22T13:00:37.446Z,29.6
2017-08-22T13:01:37.015Z,29.6
2017-08-22T13:02:36.227Z,29.5
2017-08-22T13:03:37.025Z,29.5
2017-08-22T13:04:37.852Z,29.4
2017-08-22T13:05:38.820Z,29.4
2017-08-22T13:06:40.738Z,29.3
2017-08-22T13:07:38.791Z,29.3
2017-08-22T13:08:37.418Z,29.3
2017-08-22T13:09:38.458Z,29.3
2017-08-22T13:10:37.354Z,29.3
2017-08-22T13:11:36.869Z,29.3
2017-08-22T13:12:37.493Z,29.2
2017-08-22T13:13:36.997Z,29.2
2017-08-22T13:14:41.972Z,29.2
2017-08-22T13:15:38.787Z,29.2
2017-08-22T13:16:38.811Z,29.2
2017-08-22T13:17:37.578Z,29.2
2017-08-22T13:18:37.695Z,29.2
2017-08-22T13:19:37.189Z,29.3
2017-08-22T13:20:37.706Z,29.3
2017-08-22T13:21:41.847Z,29.2
2017-08-22T13:22:37.037Z,29.2